createdAt,value
2023-03-15T00:03:07.993Z,19.10
2023-03-15T00:08:12.572Z,18.99
2023-03-15T00:13:16.566Z,18.88
2023-03-15T00:18:20.551Z,18.79
2023-03-15T00:23:24.717Z,18.69
2023-03-15T00:28:27.397Z,18.57
2023-03-15T00:33:34.584Z,18.47
2023-03-15T00:38:40.240Z,18.33
2023-03-15T00:43:43.299Z,18.28
2023-03-15T00:48:49.028Z,18.15
2023-03-15T00:53:54.002Z,18.03
2023-03-15T00:58:58.166Z,17.95
2023-03-15T01:04:01.309Z,17.84
2023-03-15T01:09:05.730Z,17.74
2023-03-15T01:14:09.108Z,17.64
2023-03-15T01:19:13.237Z,17.55
2023-03-15T01:24:17.306Z,17.46
2023-03-15T01:29:19.939Z,17.39
2023-03-15T01:34:22.795Z,17.31
2023-03-15T01:39:27.034Z,17.22
2023-03-15T01:44:49.521Z,17.14
2023-03-15T01:49:56.685Z,17.08
2023-03-15T01:55:02.417Z,17.03
2023-03-15T02:00:11.792Z,16.98
2023-03-15T02:05:28.383Z,16.88
2023-03-15T02:10:36.796Z,16.83
2023-03-15T02:15:46.763Z,16.74
2023-03-15T02:21:00.350Z,16.72
2023-03-15T02:26:12.143Z,16.63
2023-03-15T02:31:17.978Z,16.57
2023-03-15T02:36:22.728Z,16.53
2023-03-15T02:41:28.464Z,16.47
2023-03-15T02:46:32.443Z,16.40
2023-03-15T02:51:35.552Z,16.33
2023-03-15T02:56:38.333Z,16.29
2023-03-15T03:01:45.696Z,16.22
2023-03-15T03:06:48.680Z,16.16
2023-03-15T03:11:56.893Z,16.13
2023-03-15T03:17:01.578Z,16.02
2023-03-15T03:22:04.515Z,15.99
2023-03-15T03:27:07.426Z,15.94
2023-03-15T03:32:14.554Z,15.88
2023-03-15T03:37:18.430Z,15.81
2023-03-15T03:42:32.596Z,15.79
2023-03-15T03:47:36.611Z,15.74
2023-03-15T03:52:39.403Z,15.70
2023-03-15T03:57:46.559Z,15.66
2023-03-15T04:02:59.116Z,15.62
2023-03-15T04:08:01.866Z,15.59
2023-03-15T04:13:09.364Z,15.53
2023-03-15T04:18:13.635Z,15.50
2023-03-15T04:23:19.053Z,15.47
2023-03-15T04:28:38.080Z,15.41
2023-03-15T04:34:11.513Z,15.38
2023-03-15T04:39:32.936Z,15.35
2023-03-15T04:44:54.737Z,15.29
2023-03-15T04:50:31.632Z,15.23
2023-03-15T04:55:43.389Z,15.21
2023-03-15T05:00:53.744Z,15.16
2023-03-15T05:06:08.005Z,15.15
2023-03-15T05:11:33.916Z,15.09
2023-03-15T05:16:47.742Z,15.07
2023-03-15T05:21:57.809Z,15.03
2023-03-15T05:27:13.534Z,15.00
2023-03-15T05:32:35.530Z,14.98
2023-03-15T05:37:56.428Z,14.94
2023-03-15T05:43:09.847Z,14.93
2023-03-15T05:48:32.792Z,14.88
2023-03-15T05:54:05.672Z,14.85
2023-03-15T05:59:14.192Z,14.81
2023-03-15T06:04:49.242Z,14.79
2023-03-15T06:09:57.636Z,14.77
2023-03-15T06:15:01.717Z,14.73
2023-03-15T06:20:05.376Z,14.70
2023-03-15T06:25:11.121Z,14.66
2023-03-15T06:30:16.957Z,14.63
2023-03-15T06:35:21.039Z,14.62
2023-03-15T06:40:25.175Z,14.58
2023-03-15T06:45:28.475Z,14.57
2023-03-15T06:50:46.100Z,14.54
2023-03-15T06:55:52.117Z,15.03
2023-03-15T07:00:54.820Z,15.55
2023-03-15T07:05:57.473Z,16.07
2023-03-15T07:11:01.756Z,16.60
2023-03-15T07:16:04.753Z,17.13
2023-03-15T07:21:08.131Z,17.55
2023-03-15T07:26:12.201Z,17.81
2023-03-15T07:31:15.159Z,18.05
2023-03-15T07:36:17.814Z,18.18
2023-03-15T07:41:22.198Z,18.28
2023-03-15T07:46:34.150Z,18.32
2023-03-15T07:51:36.842Z,18.31
2023-03-15T07:56:40.869Z,18.33
2023-03-15T08:01:43.580Z,18.29
2023-03-15T08:06:46.236Z,18.31
2023-03-15T08:11:50.285Z,18.28
2023-03-15T08:16:53.184Z,18.22
2023-03-15T08:21:55.823Z,18.25
2023-03-15T08:26:59.857Z,18.32
2023-03-15T08:32:03.186Z,19.27
2023-03-15T08:37:05.932Z,19.49
2023-03-15T08:42:10.542Z,19.21
2023-03-15T08:47:13.239Z,19.57
2023-03-15T08:52:40.800Z,19.45
2023-03-15T08:57:44.949Z,19.16
2023-03-15T09:02:49.007Z,18.59
2023-03-15T09:07:52.990Z,18.68
2023-03-15T09:12:57.126Z,18.27
2023-03-15T09:17:59.785Z,18.22
2023-03-15T09:23:02.523Z,19.50
2023-03-15T09:28:07.620Z,19.59
2023-03-15T09:33:14.568Z,19.78
2023-03-15T09:38:17.747Z,19.59
2023-03-15T09:43:51.789Z,19.26
2023-03-15T09:48:56.604Z,19.27
2023-03-15T09:54:01.613Z,19.24
2023-03-15T09:59:06.133Z,19.98
2023-03-15T10:04:12.444Z,20.17
2023-03-15T10:09:19.358Z,20.22
2023-03-15T10:14:29.086Z,20.07
2023-03-15T10:19:38.836Z,20.01
2023-03-15T10:24:47.672Z,19.88
2023-03-15T10:30:40.590Z,20.29
2023-03-15T10:36:29.300Z,21.07
2023-03-15T10:48:00.247Z,21.56
2023-03-15T10:54:28.520Z,21.84
2023-03-15T11:00:06.564Z,21.84
2023-03-15T11:05:17.647Z,21.92
2023-03-15T11:10:23.240Z,21.83
2023-03-15T11:15:27.263Z,21.65
2023-03-15T11:20:31.870Z,21.65
2023-03-15T11:25:34.586Z,21.55
2023-03-15T11:30:40.316Z,21.49
2023-03-15T11:35:48.070Z,21.50
2023-03-15T11:40:56.624Z,21.47
2023-03-15T11:46:03.001Z,21.38
2023-03-15T11:51:17.008Z,21.19
2023-03-15T11:56:25.353Z,21.10
2023-03-15T12:01:29.406Z,20.92
2023-03-15T12:06:38.484Z,20.83
2023-03-15T12:11:42.635Z,20.54
2023-03-15T12:16:47.662Z,20.11
2023-03-15T12:21:52.152Z,20.31
2023-03-15T12:27:01.605Z,21.08
2023-03-15T12:32:13.533Z,21.12
2023-03-15T12:37:19.584Z,21.31
2023-03-15T12:43:08.603Z,21.53
2023-03-15T12:48:26.135Z,21.31
2023-03-15T12:53:43.944Z,21.19
2023-03-15T12:58:48.400Z,20.94
2023-03-15T13:03:55.936Z,20.91
2023-03-15T13:09:03.205Z,20.85
2023-03-15T13:14:13.120Z,20.89
2023-03-15T13:19:22.811Z,20.89
2023-03-15T13:24:32.686Z,20.79
2023-03-15T13:29:35.518Z,20.65
2023-03-15T13:34:39.622Z,20.49
2023-03-15T13:39:54.979Z,20.28
2023-03-15T13:45:18.801Z,20.11
2023-03-15T13:50:22.977Z,20.14
2023-03-15T13:55:25.690Z,19.85
2023-03-15T14:00:28.561Z,19.84
2023-03-15T14:05:34.685Z,20.11
2023-03-15T14:10:38.467Z,20.53
2023-03-15T14:15:44.298Z,20.81
2023-03-15T14:20:54.194Z,20.55
2023-03-15T14:26:01.045Z,20.72
2023-03-15T14:31:04.326Z,20.80
2023-03-15T14:36:12.754Z,20.88
2023-03-15T14:41:26.325Z,20.87
2023-03-15T14:46:29.300Z,20.84
2023-03-15T14:51:33.640Z,20.76
2023-03-15T14:56:37.685Z,20.67
2023-03-15T15:01:42.036Z,20.52
2023-03-15T15:06:51.415Z,20.37
2023-03-15T15:11:54.746Z,20.22
2023-03-15T15:16:57.468Z,20.11
2023-03-15T15:22:01.617Z,20.00
2023-03-15T15:27:04.251Z,19.91
2023-03-15T15:32:07.590Z,19.74
2023-03-15T15:37:12.146Z,19.76
2023-03-15T15:42:14.836Z,20.11
2023-03-15T15:47:17.573Z,20.32
2023-03-15T15:52:22.731Z,20.40
2023-03-15T15:57:26.596Z,20.39
2023-03-15T16:02:29.344Z,20.43
2023-03-15T16:07:33.460Z,20.39
2023-03-15T16:12:36.229Z,20.36
2023-03-15T16:17:38.855Z,20.31
2023-03-15T16:22:44.437Z,20.23
2023-03-15T16:27:47.121Z,20.22
2023-03-15T16:32:49.970Z,20.10
2023-03-15T16:37:57.148Z,20.01
2023-03-15T16:42:59.855Z,19.91
2023-03-15T16:48:02.525Z,19.91
2023-03-15T16:53:08.627Z,19.74
2023-03-15T16:58:16.193Z,19.55
2023-03-15T17:03:18.956Z,19.46
2023-03-15T17:08:23.742Z,19.30
2023-03-15T17:13:51.942Z,19.16
2023-03-15T17:18:54.609Z,19.03
2023-03-15T17:23:58.706Z,18.93
2023-03-15T17:29:01.939Z,18.78
2023-03-15T17:34:04.666Z,18.67
2023-03-15T17:39:10.457Z,18.54
2023-03-15T17:44:17.704Z,18.46
2023-03-15T17:49:20.877Z,18.31
2023-03-15T17:54:25.334Z,18.20
2023-03-15T17:59:51.285Z,18.07
2023-03-15T18:05:17.720Z,17.95
2023-03-15T18:10:23.768Z,17.88
2023-03-15T18:15:26.530Z,17.79
2023-03-15T18:31:31.856Z,17.52
2023-03-15T18:36:34.644Z,17.41
2023-03-15T18:41:37.296Z,17.36
2023-03-15T18:46:43.847Z,17.25
2023-03-15T18:51:46.552Z,17.19
2023-03-15T18:56:49.533Z,17.13
2023-03-15T19:03:01.949Z,17.40
2023-03-15T19:08:06.234Z,17.86
2023-03-15T19:14:08.889Z,18.32
2023-03-15T19:19:11.610Z,18.74
2023-03-15T19:24:15.666Z,19.04
2023-03-15T19:29:18.367Z,19.42
2023-03-15T19:34:21.103Z,19.75
2023-03-15T19:39:25.132Z,20.04
2023-03-15T19:44:30.555Z,20.23
2023-03-15T19:49:33.288Z,20.33
2023-03-15T19:54:38.439Z,20.33
2023-03-15T19:59:41.624Z,20.37
2023-03-15T20:05:01.560Z,20.33
2023-03-15T20:10:08.347Z,20.30
2023-03-15T20:16:26.572Z,20.19
2023-03-15T20:21:29.934Z,20.15
2023-03-15T20:26:34.007Z,20.04
2023-03-15T20:31:55.743Z,19.92
2023-03-15T20:36:58.448Z,19.86
2023-03-15T20:42:07.388Z,19.72
2023-03-15T20:47:10.195Z,19.62
2023-03-15T20:52:13.041Z,19.49
2023-03-15T20:57:17.106Z,19.35
2023-03-15T21:02:19.926Z,19.26
2023-03-15T21:07:22.694Z,19.10
2023-03-15T21:18:35.939Z,18.91
2023-03-15T21:24:05.649Z,18.99
2023-03-15T21:29:08.349Z,19.27
2023-03-15T21:34:12.382Z,19.35
2023-03-15T21:39:15.152Z,19.40
2023-03-15T21:50:34.516Z,19.45
2023-03-15T22:02:16.677Z,19.39
2023-03-15T22:07:20.719Z,19.39
2023-03-15T22:12:25.318Z,19.31
2023-03-15T22:17:29.277Z,19.18
2023-03-15T22:22:33.387Z,19.07
2023-03-15T22:27:36.106Z,18.98
2023-03-15T22:32:38.865Z,18.89
2023-03-15T22:37:43.080Z,18.77
2023-03-15T22:42:46.828Z,18.69
2023-03-15T22:48:00.999Z,18.50
2023-03-15T22:53:05.036Z,18.36
2023-03-15T22:58:07.702Z,18.28
2023-03-15T23:03:10.400Z,18.12
2023-03-15T23:08:14.433Z,17.98
2023-03-15T23:13:17.390Z,17.89
2023-03-15T23:18:20.104Z,17.80
2023-03-15T23:23:25.314Z,17.67
2023-03-15T23:28:28.038Z,17.51
2023-03-15T23:33:33.911Z,17.44
2023-03-15T23:38:37.930Z,17.33
2023-03-15T23:43:41.551Z,17.27
2023-03-15T23:48:44.323Z,17.15
2023-03-15T23:53:48.349Z,17.10
2023-03-15T23:58:51.006Z,16.96
